createdAt,value
2017-09-03T00:01:33.378Z,14.90
2017-09-03T00:04:00.966Z,14.81
2017-09-03T00:06:32.256Z,14.49
2017-09-03T00:09:00.124Z,14.39
2017-09-03T00:11:27.601Z,14.41
2017-09-03T00:13:55.069Z,14.41
2017-09-03T00:16:22.581Z,14.42
2017-09-03T00:18:50.059Z,14.48
2017-09-03T00:21:17.568Z,14.56
2017-09-03T00:23:45.837Z,14.61
2017-09-03T00:26:13.336Z,14.54
2017-09-03T00:28:40.823Z,14.31
2017-09-03T00:31:08.316Z,14.35
2017-09-03T00:33:35.794Z,14.25
2017-09-03T00:36:03.316Z,14.29
2017-09-03T00:38:30.794Z,14.33
2017-09-03T00:40:58.285Z,14.11
2017-09-03T00:43:25.806Z,14.01
2017-09-03T00:45:53.295Z,14.02
2017-09-03T00:48:20.781Z,13.99
2017-09-03T00:50:48.278Z,13.96
2017-09-03T00:53:16.054Z,13.99
2017-09-03T00:55:43.568Z,14.04
2017-09-03T00:58:11.019Z,14.07
2017-09-03T01:00:38.514Z,14.09
2017-09-03T01:03:05.990Z,14.12
2017-09-03T01:05:33.490Z,14.09
2017-09-03T01:08:01.024Z,13.96
2017-09-03T01:10:28.538Z,13.84
2017-09-03T01:12:56.003Z,13.80
2017-09-03T01:15:23.493Z,13.86
2017-09-03T01:17:50.979Z,13.53
2017-09-03T01:20:18.491Z,13.75
2017-09-03T01:22:45.945Z,13.85
2017-09-03T01:25:13.453Z,13.85
2017-09-03T01:27:40.937Z,13.72
2017-09-03T01:30:08.438Z,13.64
2017-09-03T01:32:35.923Z,13.60
2017-09-03T01:35:03.423Z,13.52
2017-09-03T01:37:30.928Z,13.52
2017-09-03T01:39:58.437Z,13.60
2017-09-03T01:42:25.914Z,13.56
2017-09-03T01:44:53.415Z,13.55
2017-09-03T01:47:20.865Z,13.63
2017-09-03T01:49:48.385Z,13.64
2017-09-03T01:52:15.839Z,13.41
2017-09-03T01:54:43.361Z,13.39
2017-09-03T01:57:10.875Z,13.11
2017-09-03T01:59:38.358Z,13.21
2017-09-03T02:02:05.857Z,13.32
2017-09-03T02:04:33.329Z,13.35
2017-09-03T02:07:00.831Z,13.28
2017-09-03T02:09:28.282Z,12.99
2017-09-03T02:11:55.797Z,13.01
2017-09-03T02:14:23.265Z,13.19
2017-09-03T02:16:51.018Z,13.22
2017-09-03T02:19:18.512Z,13.33
2017-09-03T02:21:45.990Z,13.34
2017-09-03T02:24:13.497Z,13.26
2017-09-03T02:26:40.974Z,13.10
2017-09-03T02:29:08.503Z,12.90
2017-09-03T02:31:35.971Z,12.86
2017-09-03T02:34:04.285Z,12.99
2017-09-03T02:36:31.755Z,13.03
2017-09-03T02:38:59.257Z,12.93
2017-09-03T02:41:26.748Z,12.89
2017-09-03T02:43:54.253Z,12.95
2017-09-03T02:46:21.763Z,12.85
2017-09-03T02:48:49.263Z,12.66
2017-09-03T02:51:16.756Z,12.76
2017-09-03T02:53:44.223Z,12.86
2017-09-03T02:56:11.726Z,12.95
2017-09-03T02:58:39.208Z,12.83
2017-09-03T03:01:06.690Z,12.76
2017-09-03T03:03:39.103Z,12.67
2017-09-03T03:06:06.603Z,12.72
2017-09-03T03:08:35.452Z,12.64
2017-09-03T03:11:02.959Z,12.62
2017-09-03T03:13:30.474Z,12.68
2017-09-03T03:16:04.811Z,13.01
2017-09-03T03:18:32.342Z,12.91
2017-09-03T03:20:59.838Z,12.77
2017-09-03T03:23:27.387Z,12.64
2017-09-03T03:25:54.888Z,12.56
2017-09-03T03:28:22.406Z,12.43
2017-09-03T03:30:49.901Z,12.39
2017-09-03T03:33:17.401Z,12.43
2017-09-03T03:35:44.885Z,12.51
2017-09-03T03:38:13.171Z,12.53
2017-09-03T03:40:40.653Z,12.48
2017-09-03T03:43:08.139Z,12.51
2017-09-03T03:45:35.619Z,12.54
2017-09-03T03:48:03.170Z,12.67
2017-09-03T03:50:30.635Z,12.82
2017-09-03T03:52:58.161Z,12.87
2017-09-03T03:55:26.156Z,12.50
2017-09-03T03:57:53.659Z,12.20
2017-09-03T04:00:21.121Z,12.04
2017-09-03T04:02:48.633Z,12.00
2017-09-03T04:05:16.090Z,11.94
2017-09-03T04:07:43.581Z,11.99
2017-09-03T04:10:11.043Z,12.17
2017-09-03T04:12:39.503Z,12.17
2017-09-03T04:15:06.962Z,12.38
2017-09-03T04:17:34.445Z,12.39
2017-09-03T04:20:09.775Z,12.51
2017-09-03T04:22:37.326Z,12.55
2017-09-03T04:25:05.026Z,12.43
2017-09-03T04:27:32.514Z,12.41
2017-09-03T04:29:59.984Z,12.41
2017-09-03T04:32:27.468Z,12.46
2017-09-03T04:34:55.029Z,12.68
2017-09-03T04:37:22.522Z,12.62
2017-09-03T04:39:50.030Z,12.60
2017-09-03T04:42:17.497Z,12.52
2017-09-03T04:44:45.021Z,12.52
2017-09-03T04:47:12.483Z,12.60
2017-09-03T04:49:39.989Z,12.30
2017-09-03T04:52:07.475Z,12.18
2017-09-03T04:54:34.975Z,11.87
2017-09-03T04:57:02.443Z,11.73
2017-09-03T04:59:29.968Z,11.86
2017-09-03T05:01:57.446Z,11.73
2017-09-03T05:04:24.934Z,11.70
2017-09-03T05:06:52.411Z,11.77
2017-09-03T05:09:19.945Z,11.92
2017-09-03T05:11:47.409Z,11.91
2017-09-03T05:14:14.877Z,11.90
2017-09-03T05:16:42.365Z,12.01
2017-09-03T05:19:09.827Z,12.01
2017-09-03T05:21:37.328Z,11.89
2017-09-03T05:24:05.404Z,11.90
2017-09-03T05:26:32.916Z,12.05
2017-09-03T05:29:00.391Z,12.00
2017-09-03T05:31:27.873Z,11.97
2017-09-03T05:33:55.335Z,12.07
2017-09-03T05:36:22.855Z,12.05
2017-09-03T05:38:50.749Z,12.20
2017-09-03T05:41:18.241Z,12.30
2017-09-03T05:43:45.714Z,12.26
2017-09-03T05:46:13.207Z,12.30
2017-09-03T05:48:40.675Z,12.03
2017-09-03T05:51:08.190Z,12.05
2017-09-03T05:53:35.649Z,12.05
2017-09-03T05:56:03.161Z,11.86
2017-09-03T05:58:30.674Z,11.85
2017-09-03T06:00:58.155Z,12.23
2017-09-03T06:03:25.642Z,12.52
2017-09-03T06:05:53.093Z,12.35
2017-09-03T06:08:20.600Z,12.20
2017-09-03T06:10:48.077Z,12.34
2017-09-03T06:13:15.582Z,12.44
2017-09-03T06:15:43.069Z,12.05
2017-09-03T06:18:10.573Z,11.75
2017-09-03T06:20:38.043Z,11.72
2017-09-03T06:23:05.530Z,11.76
2017-09-03T06:25:33.042Z,11.69
2017-09-03T06:28:00.551Z,11.76
2017-09-03T06:30:28.042Z,11.96
2017-09-03T06:32:55.616Z,12.34
2017-09-03T06:35:23.126Z,12.57
2017-09-03T06:37:50.630Z,12.73
2017-09-03T06:40:18.104Z,12.33
2017-09-03T06:42:45.625Z,12.82
2017-09-03T06:45:13.097Z,12.75
2017-09-03T06:47:40.601Z,12.82
2017-09-03T06:50:08.050Z,12.90
2017-09-03T06:52:35.567Z,12.92
2017-09-03T06:55:03.061Z,13.10
2017-09-03T06:57:30.572Z,13.19
2017-09-03T06:59:58.095Z,13.32
2017-09-03T07:02:25.587Z,13.17
2017-09-03T07:04:53.870Z,13.27
2017-09-03T07:07:21.342Z,13.22
2017-09-03T07:09:48.866Z,13.05
2017-09-03T07:12:16.326Z,12.93
2017-09-03T07:14:43.809Z,12.88
2017-09-03T07:17:11.273Z,13.02
2017-09-03T07:19:38.767Z,13.41
2017-09-03T07:22:06.254Z,13.48
2017-09-03T07:24:33.763Z,13.44
2017-09-03T07:27:01.236Z,13.49
2017-09-03T07:29:28.708Z,13.59
2017-09-03T07:31:56.254Z,13.65
2017-09-03T07:34:23.724Z,13.70
2017-09-03T07:36:51.226Z,13.85
2017-09-03T07:39:18.723Z,14.01
2017-09-03T07:41:46.221Z,14.13
2017-09-03T07:44:13.697Z,13.79
2017-09-03T07:46:41.219Z,14.26
2017-09-03T07:49:08.681Z,14.24
2017-09-03T07:51:36.178Z,14.26
2017-09-03T07:54:03.677Z,14.37
2017-09-03T07:56:31.168Z,14.56
2017-09-03T07:58:58.664Z,14.57
2017-09-03T08:01:26.173Z,14.56
2017-09-03T08:03:53.630Z,14.59
2017-09-03T08:06:21.112Z,14.75
2017-09-03T08:08:48.599Z,14.81
2017-09-03T08:11:16.116Z,15.00
2017-09-03T08:13:43.592Z,15.16
2017-09-03T08:16:11.108Z,15.34
2017-09-03T08:18:38.584Z,15.35
2017-09-03T08:21:06.110Z,15.26
2017-09-03T08:23:33.639Z,14.55
2017-09-03T08:26:01.134Z,14.37
2017-09-03T08:28:28.634Z,14.60
2017-09-03T08:30:56.588Z,14.76
2017-09-03T08:33:24.099Z,14.80
2017-09-03T08:35:51.571Z,14.49
2017-09-03T08:38:19.077Z,14.88
2017-09-03T08:40:46.558Z,15.23
2017-09-03T08:43:14.042Z,15.42
2017-09-03T08:45:41.508Z,15.72
2017-09-03T08:48:08.999Z,15.86
2017-09-03T08:50:36.586Z,16.08
2017-09-03T08:53:05.094Z,15.87
2017-09-03T08:55:32.577Z,15.49
2017-09-03T08:58:00.104Z,15.38
2017-09-03T09:00:27.587Z,15.53
2017-09-03T09:02:55.127Z,15.75
2017-09-03T09:05:22.642Z,16.35
2017-09-03T09:07:50.149Z,16.75
2017-09-03T09:10:17.629Z,16.83
2017-09-03T09:12:45.135Z,17.35
2017-09-03T09:15:12.627Z,17.23
2017-09-03T09:17:40.124Z,17.39
2017-09-03T09:20:07.595Z,17.71
2017-09-03T09:22:35.113Z,17.96
2017-09-03T09:25:02.596Z,17.98
2017-09-03T09:27:30.925Z,18.02
2017-09-03T09:29:58.435Z,17.47
2017-09-03T09:32:25.914Z,17.14
2017-09-03T09:34:53.415Z,17.34
2017-09-03T09:37:21.016Z,17.28
2017-09-03T09:39:48.542Z,17.47
2017-09-03T09:42:16.090Z,17.69
2017-09-03T09:44:43.618Z,17.83
2017-09-03T09:47:11.125Z,17.90
2017-09-03T09:49:38.659Z,17.67
2017-09-03T09:52:06.121Z,17.81
2017-09-03T09:54:33.613Z,18.03
2017-09-03T09:57:01.084Z,18.02
2017-09-03T09:59:28.601Z,18.39
2017-09-03T10:01:56.263Z,18.52
2017-09-03T10:04:23.734Z,18.17
2017-09-03T10:06:51.273Z,18.35
2017-09-03T10:09:18.807Z,18.55
2017-09-03T10:11:47.352Z,18.55
2017-09-03T10:14:15.801Z,18.25
2017-09-03T10:16:43.314Z,18.53
2017-09-03T10:19:10.806Z,18.60
2017-09-03T10:21:38.337Z,18.57
2017-09-03T10:24:05.838Z,18.64
2017-09-03T10:26:33.341Z,18.90
2017-09-03T10:29:00.835Z,19.02
2017-09-03T10:31:28.304Z,19.02
2017-09-03T10:33:55.833Z,18.96
2017-09-03T10:36:23.352Z,19.42
2017-09-03T10:38:50.873Z,19.81
2017-09-03T10:41:18.361Z,20.04
2017-09-03T10:43:45.842Z,20.23
2017-09-03T10:46:13.331Z,19.89
2017-09-03T10:48:40.823Z,19.70
2017-09-03T10:51:12.759Z,19.76
2017-09-03T10:53:40.310Z,19.67
2017-09-03T10:56:07.795Z,19.38
2017-09-03T10:58:35.334Z,19.58
2017-09-03T11:01:02.836Z,19.38
2017-09-03T11:03:30.304Z,19.27
2017-09-03T11:05:57.818Z,19.08
2017-09-03T11:08:25.334Z,19.13
2017-09-03T11:10:52.856Z,19.26
2017-09-03T11:13:20.503Z,19.37
2017-09-03T11:15:47.989Z,19.45
2017-09-03T11:18:15.445Z,19.43
2017-09-03T11:20:42.938Z,19.09
2017-09-03T11:23:10.429Z,19.14
2017-09-03T11:25:38.736Z,19.49
2017-09-03T11:28:06.245Z,19.90
2017-09-03T11:30:33.749Z,20.08
2017-09-03T11:33:01.230Z,20.05
2017-09-03T11:35:28.764Z,19.85
2017-09-03T11:37:56.268Z,19.62
2017-09-03T11:40:25.055Z,19.80
2017-09-03T11:42:52.553Z,19.78
2017-09-03T11:45:20.049Z,19.91
2017-09-03T11:47:47.541Z,20.07
2017-09-03T11:50:15.008Z,20.17
2017-09-03T11:52:42.515Z,20.09
2017-09-03T11:55:10.027Z,19.90
2017-09-03T11:57:37.559Z,19.91
2017-09-03T12:00:05.028Z,20.00
2017-09-03T12:02:32.533Z,19.98
2017-09-03T12:04:59.991Z,20.00
2017-09-03T12:07:27.478Z,20.10
2017-09-03T12:09:54.945Z,20.15
2017-09-03T12:12:22.462Z,20.26
2017-09-03T12:14:49.973Z,20.42
2017-09-03T12:17:17.480Z,20.61
2017-09-03T12:19:44.973Z,20.74
2017-09-03T12:22:12.426Z,20.43
2017-09-03T12:24:40.462Z,20.46
2017-09-03T12:27:07.922Z,20.31
2017-09-03T12:29:35.416Z,20.29
2017-09-03T12:32:02.962Z,20.35
2017-09-03T12:34:30.504Z,20.32
2017-09-03T12:36:58.046Z,20.25
2017-09-03T12:39:25.818Z,20.08
2017-09-03T12:41:53.291Z,20.04
2017-09-03T12:44:20.790Z,20.11
2017-09-03T12:46:48.260Z,20.15
2017-09-03T12:49:15.789Z,20.18
2017-09-03T12:51:43.311Z,20.31
2017-09-03T12:54:10.802Z,20.60
2017-09-03T12:56:38.302Z,20.70
2017-09-03T12:59:05.776Z,20.61
2017-09-03T13:01:33.546Z,20.49
2017-09-03T13:04:01.783Z,20.52
2017-09-03T13:06:29.265Z,20.57
2017-09-03T13:08:56.747Z,20.83
2017-09-03T13:11:24.217Z,20.92
2017-09-03T13:13:51.745Z,20.94
2017-09-03T13:16:19.216Z,20.93
2017-09-03T13:18:46.731Z,20.94
2017-09-03T13:21:14.223Z,21.22
2017-09-03T13:23:41.743Z,21.35
2017-09-03T13:26:09.231Z,21.79
2017-09-03T13:28:36.816Z,22.08
2017-09-03T13:31:04.736Z,21.69
2017-09-03T13:33:32.259Z,21.72
2017-09-03T13:35:59.834Z,21.48
2017-09-03T13:38:27.506Z,21.82
2017-09-03T13:40:55.045Z,22.12
2017-09-03T13:43:22.526Z,22.28
2017-09-03T13:45:50.005Z,22.22
2017-09-03T13:48:17.484Z,22.20
2017-09-03T13:50:45.034Z,22.31
2017-09-03T13:53:12.562Z,22.64
2017-09-03T13:55:40.104Z,22.84
2017-09-03T13:58:07.596Z,22.92
2017-09-03T14:00:35.111Z,23.32
2017-09-03T14:03:02.612Z,23.57
2017-09-03T14:05:31.247Z,23.45
2017-09-03T14:07:58.740Z,23.61
2017-09-03T14:10:26.247Z,23.97
2017-09-03T14:12:53.750Z,24.17
2017-09-03T14:15:21.205Z,23.89
2017-09-03T14:17:48.730Z,23.58
2017-09-03T14:20:16.541Z,23.03
2017-09-03T14:22:44.054Z,22.82
2017-09-03T14:25:11.518Z,22.67
2017-09-03T14:27:39.029Z,22.36
2017-09-03T14:30:06.557Z,22.32
2017-09-03T14:32:34.021Z,22.13
2017-09-03T14:35:01.505Z,22.09
2017-09-03T14:37:28.986Z,22.16
2017-09-03T14:39:56.935Z,22.06
2017-09-03T14:42:24.429Z,22.01
2017-09-03T14:44:52.062Z,21.92
2017-09-03T14:47:19.543Z,21.97
2017-09-03T14:49:47.020Z,21.89
2017-09-03T14:52:15.487Z,21.90
2017-09-03T14:54:42.972Z,21.67
2017-09-03T14:57:11.179Z,21.53
2017-09-03T14:59:38.670Z,21.58
2017-09-03T15:02:06.192Z,21.53
2017-09-03T15:04:33.687Z,21.45
2017-09-03T15:07:01.222Z,21.46
2017-09-03T15:09:28.762Z,21.46
2017-09-03T15:11:56.269Z,21.39
2017-09-03T15:14:23.770Z,21.31
2017-09-03T15:16:51.248Z,21.49
2017-09-03T15:19:18.733Z,21.63
2017-09-03T15:21:46.263Z,21.85
2017-09-03T15:24:13.758Z,22.24
2017-09-03T15:26:41.263Z,22.60
2017-09-03T15:29:08.769Z,23.02
2017-09-03T15:31:36.250Z,23.44
2017-09-03T15:34:03.784Z,23.79
2017-09-03T15:36:31.265Z,24.17
2017-09-03T15:38:58.781Z,24.50
2017-09-03T15:41:26.260Z,24.36
2017-09-03T15:43:54.378Z,24.16
2017-09-03T15:46:21.861Z,24.46
2017-09-03T15:48:49.433Z,24.87
2017-09-03T15:51:16.963Z,25.35
2017-09-03T15:53:44.455Z,24.78
2017-09-03T15:56:11.919Z,24.96
2017-09-03T15:58:39.410Z,25.43
2017-09-03T16:01:07.538Z,25.62
2017-09-03T16:03:35.029Z,25.38
2017-09-03T16:06:02.518Z,25.70
2017-09-03T16:08:30.145Z,25.84
2017-09-03T16:10:58.394Z,25.47
2017-09-03T16:13:25.913Z,25.16
2017-09-03T16:15:53.435Z,25.18
2017-09-03T16:18:20.927Z,25.40
2017-09-03T16:20:48.448Z,25.60
2017-09-03T16:23:15.909Z,25.99
2017-09-03T16:25:43.407Z,26.11
2017-09-03T16:28:10.921Z,26.17
2017-09-03T16:30:40.211Z,26.55
2017-09-03T16:33:07.763Z,26.70
2017-09-03T16:35:35.292Z,27.04
2017-09-03T16:38:02.817Z,27.24
2017-09-03T16:40:30.309Z,27.46
2017-09-03T16:42:57.928Z,27.61
2017-09-03T16:45:25.405Z,27.53
2017-09-03T16:47:52.905Z,27.34
2017-09-03T16:50:20.391Z,27.28
2017-09-03T16:52:47.881Z,27.26
2017-09-03T16:55:15.401Z,27.23
2017-09-03T16:57:42.879Z,26.93
2017-09-03T17:00:10.390Z,26.77
2017-09-03T17:02:37.857Z,26.46
2017-09-03T17:05:05.817Z,25.99
2017-09-03T17:07:33.311Z,25.58
2017-09-03T17:10:00.783Z,25.39
2017-09-03T17:12:28.318Z,25.11
2017-09-03T17:14:55.798Z,24.84
2017-09-03T17:17:29.209Z,24.67
2017-09-03T17:19:56.754Z,24.35
2017-09-03T17:22:24.674Z,24.24
2017-09-03T17:24:52.184Z,24.16
2017-09-03T17:27:19.690Z,23.95
2017-09-03T17:29:47.185Z,23.92
2017-09-03T17:32:14.703Z,23.84
2017-09-03T17:34:47.669Z,23.78
2017-09-03T17:37:19.554Z,23.66
2017-09-03T17:39:47.054Z,23.55
2017-09-03T17:42:24.555Z,23.45
2017-09-03T17:44:52.062Z,23.36
2017-09-03T17:47:19.562Z,23.26
2017-09-03T17:49:47.076Z,22.99
2017-09-03T17:52:14.614Z,22.46
2017-09-03T17:54:42.141Z,22.05
2017-09-03T17:57:10.087Z,21.78
2017-09-03T17:59:37.602Z,21.69
2017-09-03T18:02:05.107Z,21.78
2017-09-03T18:04:33.123Z,21.90
2017-09-03T18:07:00.605Z,22.03
2017-09-03T18:09:28.089Z,22.21
2017-09-03T18:11:56.353Z,22.23
2017-09-03T18:14:28.707Z,22.30
2017-09-03T18:16:56.214Z,22.26
2017-09-03T18:19:24.355Z,22.20
2017-09-03T18:21:53.049Z,22.04
2017-09-03T18:24:20.534Z,21.93
2017-09-03T18:26:48.067Z,21.89
2017-09-03T18:29:18.084Z,21.87
2017-09-03T18:31:45.926Z,21.72
2017-09-03T18:34:13.402Z,21.74
2017-09-03T18:36:45.282Z,21.80
2017-09-03T18:42:15.169Z,21.74
2017-09-03T18:44:42.632Z,21.67
2017-09-03T18:47:10.782Z,21.59
2017-09-03T18:49:41.707Z,21.59
2017-09-03T18:52:10.990Z,21.52
2017-09-03T18:54:39.399Z,21.53
2017-09-03T18:57:06.889Z,21.52
2017-09-03T18:59:34.365Z,21.35
2017-09-03T19:02:01.858Z,21.25
2017-09-03T19:04:35.399Z,21.24
2017-09-03T19:07:02.899Z,21.17
2017-09-03T19:09:36.115Z,21.11
2017-09-03T19:12:03.576Z,21.03
2017-09-03T19:14:31.083Z,20.97
2017-09-03T19:16:58.634Z,20.72
2017-09-03T19:19:26.103Z,20.61
2017-09-03T19:21:54.409Z,20.17
2017-09-03T19:24:21.880Z,19.98
2017-09-03T19:26:49.377Z,20.08
2017-09-03T19:29:18.315Z,20.17
2017-09-03T19:31:45.830Z,20.24
2017-09-03T19:34:13.311Z,20.35
2017-09-03T19:36:40.778Z,20.46
2017-09-03T19:39:08.256Z,20.40
2017-09-03T19:41:35.721Z,20.35
2017-09-03T19:44:03.239Z,20.27
2017-09-03T19:46:30.711Z,20.03
2017-09-03T19:48:58.198Z,19.81
2017-09-03T19:51:25.666Z,19.42
2017-09-03T19:53:53.165Z,19.34
2017-09-03T19:56:20.691Z,19.37
2017-09-03T19:58:48.157Z,19.37
2017-09-03T20:01:15.668Z,19.46
2017-09-03T20:03:43.146Z,19.52
2017-09-03T20:06:10.659Z,18.83
2017-09-03T20:08:38.122Z,18.22
2017-09-03T20:11:05.611Z,17.72
2017-09-03T20:13:33.101Z,17.59
2017-09-03T20:16:00.592Z,17.47
2017-09-03T20:18:28.124Z,17.34
2017-09-03T20:20:55.594Z,17.11
2017-09-03T20:23:23.082Z,16.95
2017-09-03T20:25:50.550Z,16.97
2017-09-03T20:28:18.043Z,16.97
2017-09-03T20:30:45.541Z,16.85
2017-09-03T20:33:13.082Z,16.88
2017-09-03T20:35:40.550Z,16.80
2017-09-03T20:38:08.254Z,16.82
2017-09-03T20:40:35.728Z,16.76
2017-09-03T20:43:03.241Z,16.77
2017-09-03T20:45:30.764Z,16.73
2017-09-03T20:47:58.231Z,16.66
2017-09-03T20:50:25.743Z,16.59
2017-09-03T20:52:53.228Z,16.45
2017-09-03T20:55:20.842Z,16.47
2017-09-03T20:57:48.295Z,16.32
2017-09-03T21:00:15.762Z,16.37
2017-09-03T21:02:43.260Z,16.41
2017-09-03T21:05:10.739Z,16.34
2017-09-03T21:07:38.230Z,16.25
2017-09-03T21:10:05.687Z,16.36
2017-09-03T21:12:33.177Z,16.41
2017-09-03T21:15:00.671Z,16.33
2017-09-03T21:17:28.172Z,16.25
2017-09-03T21:19:55.633Z,16.24
2017-09-03T21:22:23.278Z,16.17
2017-09-03T21:24:50.739Z,16.08
2017-09-03T21:27:18.225Z,15.99
2017-09-03T21:29:45.702Z,16.03
2017-09-03T21:32:13.175Z,15.98
2017-09-03T21:34:41.749Z,15.99
2017-09-03T21:37:09.209Z,16.05
2017-09-03T21:39:36.695Z,16.07
2017-09-03T21:42:04.146Z,16.04
2017-09-03T21:44:31.787Z,15.99
2017-09-03T21:46:59.268Z,15.92
2017-09-03T21:49:26.727Z,15.93
2017-09-03T21:51:54.229Z,15.91
2017-09-03T21:54:21.700Z,15.95
2017-09-03T21:56:49.174Z,15.89
2017-09-03T21:59:16.661Z,15.87
2017-09-03T22:01:44.142Z,15.75
2017-09-03T22:04:11.635Z,15.71
2017-09-03T22:06:39.089Z,15.65
2017-09-03T22:09:06.580Z,15.68
2017-09-03T22:11:34.039Z,15.62
2017-09-03T22:14:01.518Z,15.55
2017-09-03T22:16:28.981Z,15.64
2017-09-03T22:18:56.487Z,15.64
2017-09-03T22:21:23.946Z,15.64
2017-09-03T22:23:51.439Z,15.65
2017-09-03T22:26:18.924Z,15.60
2017-09-03T22:28:46.389Z,15.40
2017-09-03T22:31:13.878Z,15.27
2017-09-03T22:33:41.331Z,15.14
2017-09-03T22:36:08.838Z,15.20
2017-09-03T22:38:36.302Z,15.27
2017-09-03T22:41:04.448Z,15.18
2017-09-03T22:43:31.929Z,15.29
2017-09-03T22:45:59.415Z,15.34
2017-09-03T22:48:26.878Z,15.26
2017-09-03T22:50:54.414Z,15.22
2017-09-03T22:53:21.902Z,15.16
2017-09-03T22:55:49.362Z,15.12
2017-09-03T22:58:16.851Z,15.05
2017-09-03T23:00:44.302Z,15.01
2017-09-03T23:03:11.804Z,14.98
2017-09-03T23:05:39.266Z,14.88
2017-09-03T23:08:06.884Z,14.95
2017-09-03T23:10:34.334Z,15.00
2017-09-03T23:13:01.809Z,14.96
2017-09-03T23:15:29.294Z,14.96
2017-09-03T23:17:56.795Z,14.87
2017-09-03T23:20:24.309Z,14.76
2017-09-03T23:22:51.770Z,14.83
2017-09-03T23:25:19.241Z,14.88
2017-09-03T23:27:46.697Z,14.93
2017-09-03T23:30:14.182Z,14.93
2017-09-03T23:32:41.644Z,14.84
2017-09-03T23:35:09.232Z,14.86
2017-09-03T23:37:36.686Z,14.89
2017-09-03T23:40:05.078Z,14.78
2017-09-03T23:42:32.635Z,14.80
2017-09-03T23:45:00.085Z,14.80
2017-09-03T23:47:27.569Z,14.71
2017-09-03T23:49:55.051Z,14.63
2017-09-03T23:52:22.830Z,14.65
2017-09-03T23:54:50.290Z,14.58
2017-09-03T23:57:17.773Z,14.61
2017-09-03T23:59:45.242Z,14.57
